createdAt,value
2019-02-11T00:00:54.143Z,82.80
2019-02-11T00:03:23.204Z,82.80
2019-02-11T00:05:52.658Z,82.90
2019-02-11T00:08:21.645Z,83.10
2019-02-11T00:10:55.150Z,83.10
2019-02-11T00:13:26.366Z,82.90
2019-02-11T00:15:55.231Z,83.20
2019-02-11T00:18:24.412Z,83.60
2019-02-11T00:20:54.838Z,83.60
2019-02-11T00:23:24.138Z,83.70
2019-02-11T00:25:53.242Z,83.60
2019-02-11T00:28:22.055Z,83.50
2019-02-11T00:30:50.918Z,83.40
2019-02-11T00:33:20.000Z,83.40
2019-02-11T00:35:49.253Z,83.30
2019-02-11T00:38:18.110Z,83.30
2019-02-11T00:40:46.967Z,83.20
2019-02-11T00:43:19.172Z,83.20
2019-02-11T00:45:46.426Z,83.20
2019-02-11T00:48:15.333Z,83.20
2019-02-11T00:50:44.278Z,83.10
2019-02-11T00:53:13.090Z,83.10
2019-02-11T00:55:41.918Z,83.10
2019-02-11T00:58:10.813Z,83.10
2019-02-11T01:00:39.879Z,83.00
2019-02-11T01:03:08.711Z,83.00
2019-02-11T01:05:37.810Z,83.00
2019-02-11T01:08:06.637Z,83.00
2019-02-11T01:10:35.463Z,83.00
2019-02-11T01:13:04.582Z,82.90
2019-02-11T01:15:33.646Z,82.80
2019-02-11T01:18:03.352Z,82.80
2019-02-11T01:20:32.418Z,82.70
2019-02-11T01:23:01.332Z,82.80
2019-02-11T01:25:30.139Z,82.70
2019-02-11T01:27:59.279Z,82.70
2019-02-11T01:30:28.210Z,82.70
2019-02-11T01:32:57.084Z,82.60
2019-02-11T01:35:25.892Z,82.60
2019-02-11T01:37:55.275Z,82.60
2019-02-11T01:40:24.296Z,82.60
2019-02-11T01:42:53.371Z,82.50
2019-02-11T01:45:22.163Z,82.50
2019-02-11T01:47:51.054Z,82.50
2019-02-11T01:50:19.817Z,82.40
2019-02-11T01:52:48.882Z,82.40
2019-02-11T01:55:17.963Z,82.40
2019-02-11T01:57:47.068Z,82.30
2019-02-11T02:00:15.843Z,82.30
2019-02-11T02:02:44.680Z,82.30
2019-02-11T02:05:13.531Z,82.30
2019-02-11T02:07:42.413Z,82.30
2019-02-11T02:10:13.231Z,82.30
2019-02-11T02:12:42.308Z,82.20
2019-02-11T02:15:12.348Z,82.20
2019-02-11T02:17:41.770Z,82.20
2019-02-11T02:20:12.666Z,82.20
2019-02-11T02:22:42.759Z,82.20
2019-02-11T02:25:11.676Z,82.30
2019-02-11T02:27:40.549Z,82.40
2019-02-11T02:30:10.665Z,82.50
2019-02-11T02:32:39.731Z,82.50
2019-02-11T02:35:08.657Z,82.50
2019-02-11T02:37:37.459Z,82.50
2019-02-11T02:40:06.395Z,82.40
2019-02-11T02:42:35.219Z,82.50
2019-02-11T02:45:04.358Z,82.60
2019-02-11T02:47:33.154Z,82.70
2019-02-11T02:50:02.228Z,82.70
2019-02-11T02:52:31.350Z,82.70
2019-02-11T02:55:00.453Z,82.70
2019-02-11T02:57:29.279Z,82.70
2019-02-11T02:59:58.581Z,82.60
2019-02-11T03:02:27.414Z,82.80
2019-02-11T03:04:56.537Z,82.70
2019-02-11T03:07:25.734Z,82.60
2019-02-11T03:09:54.532Z,82.60
2019-02-11T03:12:23.357Z,82.70
2019-02-11T03:14:53.583Z,82.60
2019-02-11T03:17:22.675Z,82.60
2019-02-11T03:19:51.776Z,82.70
2019-02-11T03:22:20.731Z,82.60
2019-02-11T03:24:49.798Z,82.50
2019-02-11T03:27:18.636Z,82.60
2019-02-11T03:29:47.446Z,82.50
2019-02-11T03:32:16.316Z,82.50
2019-02-11T03:34:45.672Z,82.50
2019-02-11T03:37:14.571Z,82.50
2019-02-11T03:39:43.376Z,82.40
2019-02-11T03:42:12.634Z,82.40
2019-02-11T03:44:41.476Z,82.50
2019-02-11T03:47:10.630Z,82.60
2019-02-11T03:49:39.394Z,82.50
2019-02-11T03:52:08.265Z,82.50
2019-02-11T03:54:37.463Z,82.60
2019-02-11T03:57:06.263Z,82.70
2019-02-11T03:59:35.050Z,82.60
2019-02-11T04:02:04.197Z,82.70
2019-02-11T04:04:32.973Z,82.60
2019-02-11T04:07:01.751Z,82.70
2019-02-11T04:09:30.842Z,82.70
2019-02-11T04:11:59.707Z,82.80
2019-02-11T04:14:28.492Z,82.80
2019-02-11T04:16:57.553Z,83.50
2019-02-11T04:19:26.386Z,82.80
2019-02-11T04:22:08.682Z,82.80
2019-02-11T04:24:37.770Z,82.90
2019-02-11T04:27:06.741Z,82.80
2019-02-11T04:29:35.624Z,82.70
2019-02-11T04:32:04.654Z,82.70
2019-02-11T04:34:33.562Z,82.60
2019-02-11T04:37:02.362Z,82.60
2019-02-11T04:39:31.697Z,82.60
2019-02-11T04:42:00.482Z,82.60
2019-02-11T04:44:34.081Z,82.70
2019-02-11T04:47:00.330Z,82.60
2019-02-11T04:49:29.395Z,82.60
2019-02-11T04:51:58.995Z,82.70
2019-02-11T04:54:28.193Z,82.60
2019-02-11T04:56:57.298Z,82.60
2019-02-11T04:59:26.159Z,82.50
2019-02-11T05:01:55.229Z,82.30
2019-02-11T05:04:24.336Z,82.30
2019-02-11T05:06:53.199Z,82.30
2019-02-11T05:09:21.972Z,82.30
2019-02-11T05:11:50.762Z,82.40
2019-02-11T05:14:19.661Z,82.50
2019-02-11T05:16:48.520Z,82.60
2019-02-11T05:19:17.337Z,82.60
2019-02-11T05:21:46.194Z,82.60
2019-02-11T05:24:15.290Z,82.60
2019-02-11T05:26:44.277Z,82.60
2019-02-11T05:29:13.462Z,82.50
2019-02-11T05:31:42.814Z,82.50
2019-02-11T05:34:12.406Z,82.60
2019-02-11T05:36:41.865Z,82.60
2019-02-11T05:39:10.717Z,82.60
2019-02-11T05:41:39.703Z,82.60
2019-02-11T05:44:08.817Z,82.60
2019-02-11T05:46:37.795Z,82.50
2019-02-11T05:49:06.743Z,82.40
2019-02-11T05:51:35.734Z,82.30
2019-02-11T05:54:04.927Z,82.30
2019-02-11T05:56:34.726Z,82.40
2019-02-11T05:59:03.583Z,82.30
2019-02-11T06:01:32.748Z,82.40
2019-02-11T06:04:01.903Z,82.40
2019-02-11T06:06:31.115Z,82.50
2019-02-11T06:09:00.094Z,82.50
2019-02-11T06:11:29.219Z,82.30
2019-02-11T06:13:58.289Z,82.30
2019-02-11T06:16:27.104Z,82.30
2019-02-11T06:18:55.996Z,82.40
2019-02-11T06:21:24.806Z,83.20
2019-02-11T06:23:53.592Z,82.50
2019-02-11T06:26:22.998Z,83.10
2019-02-11T06:28:51.809Z,82.40
2019-02-11T06:31:20.854Z,82.40
2019-02-11T06:33:49.966Z,82.50
2019-02-11T06:36:18.779Z,82.30
2019-02-11T06:38:47.584Z,82.30
2019-02-11T06:41:16.615Z,82.30
2019-02-11T06:43:45.859Z,82.30
2019-02-11T06:46:14.773Z,82.30
2019-02-11T06:48:43.895Z,82.30
2019-02-11T06:51:13.084Z,82.30
2019-02-11T06:53:42.457Z,82.40
2019-02-11T06:56:11.695Z,82.40
2019-02-11T06:58:40.861Z,82.40
2019-02-11T07:01:09.813Z,82.40
2019-02-11T07:03:39.447Z,82.40
2019-02-11T07:06:08.227Z,82.40
2019-02-11T07:08:37.026Z,82.30
2019-02-11T07:11:05.900Z,82.30
2019-02-11T07:13:34.725Z,82.30
2019-02-11T07:16:04.450Z,82.30
2019-02-11T07:18:35.624Z,82.30
2019-02-11T07:21:04.851Z,82.30
2019-02-11T07:23:33.682Z,82.30
2019-02-11T07:26:02.922Z,82.30
2019-02-11T07:28:31.870Z,82.30
2019-02-11T07:31:00.982Z,82.40
2019-02-11T07:33:32.664Z,82.30
2019-02-11T07:36:01.816Z,82.30
2019-02-11T07:38:30.620Z,83.10
2019-02-11T07:40:59.959Z,82.40
2019-02-11T07:43:42.688Z,82.40
2019-02-11T07:46:42.437Z,82.40
2019-02-11T07:49:11.263Z,82.40
2019-02-11T07:51:42.378Z,82.40
2019-02-11T07:54:12.228Z,82.30
2019-02-11T07:56:41.225Z,82.30
2019-02-11T07:59:10.380Z,82.10
2019-02-11T08:01:39.525Z,82.20
2019-02-11T08:04:08.374Z,82.10
2019-02-11T08:06:37.176Z,82.00
2019-02-11T08:09:07.994Z,81.90
2019-02-11T08:11:37.074Z,82.00
2019-02-11T08:14:05.970Z,82.00
2019-02-11T08:16:35.318Z,81.90
2019-02-11T08:19:04.527Z,81.90
2019-02-11T08:21:33.576Z,81.80
2019-02-11T08:24:02.757Z,81.90
2019-02-11T08:26:31.655Z,81.80
2019-02-11T08:29:00.719Z,81.60
2019-02-11T08:31:29.524Z,81.70
2019-02-11T08:33:58.352Z,81.60
2019-02-11T08:36:27.509Z,81.40
2019-02-11T08:38:56.327Z,81.30
2019-02-11T08:41:25.178Z,81.40
2019-02-11T08:43:53.995Z,81.40
2019-02-11T08:46:22.888Z,82.10
2019-02-11T08:48:51.731Z,81.20
2019-02-11T08:51:20.585Z,81.30
2019-02-11T08:53:49.427Z,81.20
2019-02-11T08:56:18.295Z,81.10
2019-02-11T08:58:47.113Z,81.00
2019-02-11T09:01:16.179Z,80.90
2019-02-11T09:03:45.318Z,80.80
2019-02-11T09:06:14.674Z,80.90
2019-02-11T09:08:43.785Z,80.80
2019-02-11T09:11:12.563Z,80.90
2019-02-11T09:13:41.661Z,80.80
2019-02-11T09:16:10.819Z,80.80
2019-02-11T09:18:40.898Z,80.80
2019-02-11T09:21:11.504Z,80.90
2019-02-11T09:23:41.472Z,81.10
2019-02-11T09:26:13.166Z,81.10
2019-02-11T09:28:41.876Z,81.20
2019-02-11T09:31:11.237Z,81.00
2019-02-11T09:33:40.602Z,80.80
2019-02-11T09:36:10.493Z,80.80
2019-02-11T09:38:42.440Z,80.90
2019-02-11T09:41:12.357Z,80.80
2019-02-11T09:43:41.849Z,80.90
2019-02-11T09:46:11.673Z,80.90
2019-02-11T09:48:41.528Z,80.90
2019-02-11T09:51:12.459Z,80.90
2019-02-11T09:53:41.655Z,80.80
2019-02-11T09:56:10.811Z,80.80
2019-02-11T09:58:40.165Z,80.70
2019-02-11T10:01:09.069Z,80.70
2019-02-11T10:03:38.134Z,80.60
2019-02-11T10:06:07.032Z,80.50
2019-02-11T10:08:36.243Z,80.60
2019-02-11T10:11:05.622Z,80.60
2019-02-11T10:13:34.502Z,80.60
2019-02-11T10:16:03.328Z,80.50
2019-02-11T10:18:32.151Z,80.50
2019-02-11T10:21:01.564Z,80.50
2019-02-11T10:23:30.639Z,80.50
2019-02-11T10:25:59.728Z,80.40
2019-02-11T10:28:28.589Z,80.50
2019-02-11T10:30:57.412Z,80.40
2019-02-11T10:33:26.343Z,80.30
2019-02-11T10:35:55.295Z,80.30
2019-02-11T10:38:24.507Z,80.40
2019-02-11T10:40:53.396Z,80.40
2019-02-11T10:43:22.223Z,80.50
2019-02-11T10:45:51.395Z,80.60
2019-02-11T10:48:20.374Z,80.70
2019-02-11T10:50:49.328Z,80.50
2019-02-11T10:53:19.071Z,80.60
2019-02-11T10:55:48.007Z,80.70
2019-02-11T10:58:18.436Z,80.70
2019-02-11T11:00:48.845Z,80.50
2019-02-11T11:03:17.696Z,80.40
2019-02-11T11:05:46.814Z,80.40
2019-02-11T11:08:15.708Z,80.50
2019-02-11T11:10:44.903Z,80.50
2019-02-11T11:13:14.442Z,80.60
2019-02-11T11:15:43.227Z,80.60
2019-02-11T11:18:12.022Z,80.40
2019-02-11T11:20:40.804Z,80.30
2019-02-11T11:23:09.882Z,80.10
2019-02-11T11:25:38.740Z,79.80
2019-02-11T11:28:07.834Z,79.80
2019-02-11T11:30:39.021Z,79.70
2019-02-11T11:33:08.134Z,79.90
2019-02-11T11:35:37.176Z,80.00
2019-02-11T11:38:06.344Z,80.40
2019-02-11T11:40:35.161Z,80.60
2019-02-11T11:43:04.306Z,80.60
2019-02-11T11:45:33.333Z,80.30
2019-02-11T11:48:07.757Z,80.10
2019-02-11T11:50:36.528Z,79.80
2019-02-11T11:53:06.233Z,80.30
2019-02-11T11:55:35.847Z,80.30
2019-02-11T11:58:11.523Z,80.20
2019-02-11T12:00:42.525Z,80.10
2019-02-11T12:03:20.669Z,80.00
2019-02-11T12:05:51.308Z,79.80
2019-02-11T12:08:21.144Z,80.00
2019-02-11T12:10:51.226Z,80.20
2019-02-11T12:13:24.221Z,80.30
2019-02-11T12:15:53.926Z,80.10
2019-02-11T12:18:23.720Z,80.20
2019-02-11T12:20:53.362Z,80.10
2019-02-11T12:23:22.826Z,79.90
2019-02-11T12:25:51.913Z,79.90
2019-02-11T12:28:20.713Z,80.00
2019-02-11T12:30:53.395Z,80.20
2019-02-11T12:33:21.047Z,80.00
2019-02-11T12:35:51.019Z,79.80
2019-02-11T12:38:20.565Z,79.90
2019-02-11T12:40:50.398Z,79.70
2019-02-11T12:43:20.671Z,79.50
2019-02-11T12:45:52.141Z,79.40
2019-02-11T12:48:22.127Z,79.40
2019-02-11T12:50:50.917Z,79.30
2019-02-11T12:53:19.734Z,79.30
2019-02-11T12:55:48.520Z,79.30
2019-02-11T12:58:17.329Z,79.40
2019-02-11T13:00:46.198Z,79.40
2019-02-11T13:03:15.223Z,79.60
2019-02-11T13:05:46.285Z,79.50
2019-02-11T13:08:14.647Z,79.30
2019-02-11T13:10:43.523Z,79.00
2019-02-11T13:13:12.492Z,78.90
2019-02-11T13:15:59.856Z,78.80
2019-02-11T13:18:12.035Z,78.90
2019-02-11T13:20:41.320Z,79.50
2019-02-11T13:23:10.431Z,78.80
2019-02-11T13:25:39.294Z,78.80
2019-02-11T13:28:08.179Z,78.90
2019-02-11T13:30:37.083Z,79.00
2019-02-11T13:33:06.210Z,79.00
2019-02-11T13:35:35.056Z,78.90
2019-02-11T13:38:03.878Z,78.60
2019-02-11T13:40:32.936Z,78.30
2019-02-11T13:43:01.787Z,78.10
2019-02-11T13:45:30.701Z,77.90
2019-02-11T13:48:00.083Z,77.80
2019-02-11T13:50:29.090Z,77.60
2019-02-11T13:52:58.382Z,77.60
2019-02-11T13:55:30.561Z,77.70
2019-02-11T13:57:58.528Z,77.80
2019-02-11T14:00:32.334Z,77.70
2019-02-11T14:03:02.723Z,77.70
2019-02-11T14:05:32.514Z,78.40
2019-02-11T14:08:02.324Z,77.50
2019-02-11T14:10:31.453Z,77.40
2019-02-11T14:13:00.663Z,77.40
2019-02-11T14:15:29.863Z,77.80
2019-02-11T14:18:11.530Z,78.50
2019-02-11T14:20:36.567Z,77.70
2019-02-11T14:23:05.910Z,77.50
2019-02-11T14:25:44.184Z,77.20
2019-02-11T14:28:05.969Z,77.00
2019-02-11T14:30:35.181Z,77.00
2019-02-11T14:33:04.676Z,77.00
2019-02-11T14:35:34.110Z,76.90
2019-02-11T14:38:03.321Z,76.80
2019-02-11T14:40:32.408Z,76.80
2019-02-11T14:43:01.282Z,76.90
2019-02-11T14:45:30.353Z,76.80
2019-02-11T14:47:59.155Z,76.80
2019-02-11T14:50:28.302Z,76.80
2019-02-11T14:52:57.125Z,76.70
2019-02-11T14:55:26.202Z,76.70
2019-02-11T14:57:55.048Z,76.70
2019-02-11T15:00:23.976Z,76.70
2019-02-11T15:03:11.766Z,76.60
2019-02-11T15:05:41.249Z,76.60
2019-02-11T15:08:10.491Z,76.60
2019-02-11T15:10:39.438Z,76.50
2019-02-11T15:13:08.765Z,76.50
2019-02-11T15:15:37.906Z,76.40
2019-02-11T15:18:07.765Z,76.30
2019-02-11T15:20:41.879Z,76.40
2019-02-11T15:23:12.487Z,76.40
2019-02-11T15:25:42.941Z,76.50
2019-02-11T15:28:11.787Z,76.60
2019-02-11T15:30:40.887Z,76.50
2019-02-11T15:33:10.129Z,76.50
2019-02-11T15:35:39.333Z,76.60
2019-02-11T15:38:08.409Z,76.60
2019-02-11T15:40:37.205Z,76.60
2019-02-11T15:43:06.027Z,76.60
2019-02-11T15:45:34.843Z,76.60
2019-02-11T15:48:03.954Z,76.60
2019-02-11T15:50:32.752Z,76.60
2019-02-11T15:53:01.569Z,76.60
2019-02-11T15:55:30.352Z,76.60
2019-02-11T15:57:59.137Z,76.70
2019-02-11T16:00:27.999Z,76.60
2019-02-11T16:02:56.779Z,76.60
2019-02-11T16:05:25.676Z,76.60
2019-02-11T16:07:54.754Z,76.60
2019-02-11T16:10:25.146Z,76.50
2019-02-11T16:12:54.024Z,76.60
2019-02-11T16:15:23.271Z,76.60
2019-02-11T16:17:52.495Z,76.60
2019-02-11T16:20:21.617Z,76.60
2019-02-11T16:22:50.443Z,76.50
2019-02-11T16:25:19.581Z,76.50
2019-02-11T16:27:48.538Z,76.60
2019-02-11T16:30:18.268Z,76.50
2019-02-11T16:32:47.540Z,76.60
2019-02-11T16:35:16.932Z,76.70
2019-02-11T16:37:45.910Z,76.60
2019-02-11T16:40:17.204Z,76.70
2019-02-11T16:42:46.062Z,77.50
2019-02-11T16:45:15.233Z,76.70
2019-02-11T16:47:44.387Z,76.80
2019-02-11T16:50:13.914Z,77.10
2019-02-11T16:52:42.844Z,77.00
2019-02-11T16:55:11.935Z,77.10
2019-02-11T16:57:40.821Z,77.10
2019-02-11T17:00:12.102Z,77.00
2019-02-11T17:02:41.015Z,76.90
2019-02-11T17:05:10.374Z,76.70
2019-02-11T17:07:41.937Z,76.60
2019-02-11T17:10:11.062Z,76.60
2019-02-11T17:12:40.030Z,76.60
2019-02-11T17:15:11.162Z,76.40
2019-02-11T17:17:39.965Z,77.20
2019-02-11T17:20:10.156Z,76.60
2019-02-11T17:22:39.087Z,76.80
2019-02-11T17:25:08.704Z,76.90
2019-02-11T17:27:37.558Z,77.00
2019-02-11T17:30:08.951Z,76.80
2019-02-11T17:32:37.868Z,76.60
2019-02-11T17:35:11.013Z,76.40
2019-02-11T17:37:39.960Z,76.30
2019-02-11T17:40:11.740Z,76.30
2019-02-11T17:42:40.871Z,76.20
2019-02-11T17:45:12.765Z,76.20
2019-02-11T17:47:41.686Z,76.40
2019-02-11T17:50:11.271Z,76.70
2019-02-11T17:52:40.500Z,76.70
2019-02-11T17:55:10.371Z,76.80
2019-02-11T17:57:39.621Z,76.90
2019-02-11T18:00:13.688Z,76.80
2019-02-11T18:02:42.571Z,76.80
2019-02-11T18:05:11.422Z,76.70
2019-02-11T18:07:40.239Z,76.70
2019-02-11T18:10:09.458Z,76.80
2019-02-11T18:12:38.253Z,77.00
2019-02-11T18:15:08.087Z,77.00
2019-02-11T18:17:36.907Z,77.00
2019-02-11T18:20:06.436Z,76.90
2019-02-11T18:22:35.441Z,76.90
2019-02-11T18:25:04.542Z,76.80
2019-02-11T18:27:34.639Z,76.70
2019-02-11T18:30:06.343Z,76.80
2019-02-11T18:32:35.457Z,76.90
2019-02-11T18:35:05.287Z,76.90
2019-02-11T18:37:34.236Z,77.00
2019-02-11T18:40:03.663Z,76.90
2019-02-11T18:42:32.920Z,76.90
2019-02-11T18:45:02.388Z,77.00
2019-02-11T18:47:31.229Z,77.00
2019-02-11T18:50:00.051Z,76.80
2019-02-11T18:52:29.021Z,76.80
2019-02-11T18:54:58.038Z,77.00
2019-02-11T18:57:26.941Z,77.10
2019-02-11T18:59:56.242Z,77.20
2019-02-11T19:02:25.082Z,77.40
2019-02-11T19:04:54.622Z,77.40
2019-02-11T19:07:23.824Z,77.50
2019-02-11T19:09:52.593Z,77.40
2019-02-11T19:12:21.703Z,77.40
2019-02-11T19:14:50.888Z,77.30
2019-02-11T19:17:20.248Z,77.30
2019-02-11T19:19:49.122Z,77.20
2019-02-11T19:22:17.990Z,77.10
2019-02-11T19:24:46.958Z,77.00
2019-02-11T19:27:16.050Z,77.00
2019-02-11T19:29:45.102Z,77.00
2019-02-11T19:32:15.935Z,77.00
2019-02-11T19:34:44.851Z,77.10
2019-02-11T19:37:13.861Z,77.10
2019-02-11T19:39:42.868Z,77.20
2019-02-11T19:42:12.157Z,77.20
2019-02-11T19:44:41.282Z,77.40
2019-02-11T19:47:10.452Z,77.30
2019-02-11T19:49:39.318Z,77.30
2019-02-11T19:52:08.339Z,77.20
2019-02-11T19:54:37.553Z,77.30
2019-02-11T19:57:06.418Z,77.20
2019-02-11T19:59:35.812Z,77.20
2019-02-11T20:02:04.740Z,77.20
2019-02-11T20:04:34.138Z,77.10
2019-02-11T20:07:03.163Z,77.10
2019-02-11T20:09:33.059Z,77.20
2019-02-11T20:12:02.087Z,77.20
2019-02-11T20:14:30.875Z,77.20
2019-02-11T20:16:59.693Z,77.10
2019-02-11T20:19:28.478Z,77.10
2019-02-11T20:21:57.630Z,77.10
2019-02-11T20:24:26.515Z,77.10
2019-02-11T20:26:55.600Z,77.30
2019-02-11T20:29:24.679Z,77.30
2019-02-11T20:31:53.853Z,77.30
2019-02-11T20:34:23.016Z,77.40
2019-02-11T20:36:51.952Z,77.50
2019-02-11T20:39:21.028Z,77.60
2019-02-11T20:41:49.892Z,77.70
2019-02-11T20:44:18.686Z,77.80
2019-02-11T20:46:48.037Z,77.90
2019-02-11T20:49:16.871Z,77.90
2019-02-11T20:51:45.949Z,77.90
2019-02-11T20:54:14.795Z,78.00
2019-02-11T20:56:43.574Z,78.00
2019-02-11T20:59:12.649Z,78.10
2019-02-11T21:01:41.740Z,78.20
2019-02-11T21:04:11.734Z,78.10
2019-02-11T21:06:40.595Z,78.00
2019-02-11T21:09:09.834Z,77.90
2019-02-11T21:11:38.901Z,77.80
2019-02-11T21:14:07.992Z,77.50
2019-02-11T21:16:36.948Z,77.30
2019-02-11T21:19:05.807Z,77.30
2019-02-11T21:21:34.946Z,77.30
2019-02-11T21:24:04.046Z,77.20
2019-02-11T21:26:32.814Z,77.30
2019-02-11T21:29:01.949Z,77.30
2019-02-11T21:31:31.126Z,77.40
2019-02-11T21:33:59.987Z,77.40
2019-02-11T21:36:28.799Z,77.60
2019-02-11T21:38:57.581Z,77.60
2019-02-11T21:41:26.465Z,77.60
2019-02-11T21:43:55.235Z,77.60
2019-02-11T21:46:24.141Z,77.70
2019-02-11T21:48:52.933Z,77.80
2019-02-11T21:51:21.712Z,77.80
2019-02-11T21:53:50.460Z,77.80
2019-02-11T21:56:19.240Z,77.90
2019-02-11T21:58:48.321Z,77.90
2019-02-11T22:01:17.140Z,77.90
2019-02-11T22:03:45.931Z,78.10
2019-02-11T22:06:15.099Z,78.10
2019-02-11T22:08:43.896Z,78.20
2019-02-11T22:11:12.688Z,78.20
2019-02-11T22:13:41.722Z,78.30
2019-02-11T22:16:10.720Z,78.40
2019-02-11T22:18:39.562Z,78.30
2019-02-11T22:21:08.384Z,78.40
2019-02-11T22:23:37.149Z,78.40
2019-02-11T22:26:06.221Z,78.20
2019-02-11T22:28:35.044Z,78.10
2019-02-11T22:31:04.188Z,78.10
2019-02-11T22:33:33.385Z,78.10
2019-02-11T22:36:02.204Z,78.00
2019-02-11T22:38:31.530Z,78.00
2019-02-11T22:41:00.343Z,77.80
2019-02-11T22:43:29.377Z,77.80
2019-02-11T22:45:58.182Z,77.90
2019-02-11T22:48:27.242Z,78.00
2019-02-11T22:50:55.992Z,78.10
2019-02-11T22:53:25.108Z,78.10
2019-02-11T22:55:54.183Z,78.00
2019-02-11T22:58:23.071Z,78.10
2019-02-11T23:01:04.124Z,78.10
2019-02-11T23:03:35.109Z,78.20
2019-02-11T23:06:04.428Z,78.20
2019-02-11T23:08:33.487Z,78.20
2019-02-11T23:11:02.294Z,78.30
2019-02-11T23:13:31.832Z,78.20
2019-02-11T23:16:00.818Z,78.20
2019-02-11T23:18:29.686Z,78.10
2019-02-11T23:20:58.631Z,78.20
2019-02-11T23:23:28.775Z,78.10
2019-02-11T23:25:57.716Z,77.90
2019-02-11T23:28:26.604Z,77.60
2019-02-11T23:30:55.760Z,77.70
2019-02-11T23:33:24.869Z,77.80
2019-02-11T23:35:53.830Z,78.00
2019-02-11T23:38:22.962Z,78.00
2019-02-11T23:40:52.137Z,78.10
2019-02-11T23:43:21.406Z,78.20
2019-02-11T23:45:50.479Z,78.20
2019-02-11T23:48:19.481Z,78.20
2019-02-11T23:50:48.283Z,78.30
2019-02-11T23:53:17.186Z,78.30
2019-02-11T23:55:46.376Z,78.30
2019-02-11T23:58:15.242Z,78.30
